PWSweather.com
Personal Weather Stations
Station Observations
SIKIA
Sykia CorinthGR 20400

Sykia CorinthGR 20400

Lat: 38.06, Lon: 22.6653

Elevation: 20

Station Type: DAVIS Vantage PRO 2 Wireless

http://sykiaweather.alinos.eu

Latest ConditionsUpdated 9:42:32 AM GMT+02:02 Monday, May 20, 2019
Currently Today's Max Today's Min Today's Average
Temperature 66.6°F19.2°C 71.2°F21.8°C 60.4°F15.8°C 64.5°F18.1°C
Dew Point 54.9°F12.7°C 55.2°F12.9°C 47.7°F8.7°C 50.9°F10.5°C
Winds 2.9 mph E4.7 kmh E 13.0 mph -20.9 kmh - - 2.6 mph 4.2 kmh
Wind Gusts 4.0 mph6.4 kmh 21.9 mph35.2 kmh - -
Humidity 66% 67% 52% 61%
Pressure 29.86 in1011.2 mb 29.87 in1011.5 mb 29.76 in1007.8 mb -
Hour Temp Dew Point Humidity Winds Wind Gusts Pressure Precip Precip Rate Daily Precip Total
09:42 AM 66.6°F19.2°C 54.9°F12.7°C 66% 2.9 mph E4.7 kmh E 4.0 mph6.4 kmh 29.86 in1011.2 mb 0.00 in0.0 mm 0.00 in0.0 mm 0.00 in0.0 mm
09:37 AM 66.7°F19.3°C 55.0°F12.8°C 66% 4.0 mph E6.4 kmh E 6.9 mph11.1 kmh 29.87 in1011.5 mb 0.00 in0.0 mm 0.00 in0.0 mm 0.00 in0.0 mm
09:32 AM 66.9°F19.4°C 54.9°F12.7°C 65% 2.9 mph E4.7 kmh E 6.9 mph11.1 kmh 29.86 in1011.2 mb 0.00 in0.0 mm 0.00 in0.0 mm 0.00 in0.0 mm
09:27 AM 66.6°F19.2°C 55.2°F12.9°C 67% 2.9 mph SE4.7 kmh SE 6.9 mph11.1 kmh 29.85 in1010.8 mb 0.00 in0.0 mm 0.00 in0.0 mm 0.00 in0.0 mm
09:22 AM 65.7°F18.7°C 54.0°F12.2°C 66% 4.0 mph SE6.4 kmh SE 9.0 mph14.5 kmh 29.85 in1010.8 mb 0.00 in0.0 mm 0.00 in0.0 mm 0.00 in0.0 mm
09:17 AM 65.7°F18.7°C 54.0°F12.2°C 66% 4.9 mph SE7.9 kmh SE 8.1 mph13.0 kmh 29.85 in1010.8 mb 0.00 in0.0 mm 0.00 in0.0 mm 0.00 in0.0 mm
09:12 AM 65.8°F18.8°C 53.8°F12.1°C 65% 4.9 mph SE7.9 kmh SE 10.1 mph16.3 kmh 29.85 in1010.8 mb 0.00 in0.0 mm 0.00 in0.0 mm 0.00 in0.0 mm
09:07 AM 66.4°F19.1°C 54.3°F12.4°C 65% 4.9 mph ESE7.9 kmh ESE 9.0 mph14.5 kmh 29.85 in1010.8 mb 0.00 in0.0 mm 0.00 in0.0 mm 0.00 in0.0 mm
09:02 AM 66.7°F19.3°C 54.1°F12.3°C 64% 4.9 mph SE7.9 kmh SE 8.1 mph13.0 kmh 29.86 in1011.2 mb 0.00 in0.0 mm 0.00 in0.0 mm 0.00 in0.0 mm
08:57 AM 67.5°F19.7°C 54.0°F12.2°C 62% 4.0 mph E6.4 kmh E 6.9 mph11.1 kmh 29.85 in1010.8 mb 0.00 in0.0 mm 0.00 in0.0 mm 0.00 in0.0 mm
08:52 AM 68.7°F20.4°C 53.4°F11.9°C 58% 4.0 mph NE6.4 kmh NE 6.9 mph11.1 kmh 29.85 in1010.8 mb 0.00 in0.0 mm 0.00 in0.0 mm 0.00 in0.0 mm
08:47 AM 71.1°F21.7°C 54.5°F12.5°C 56% 2.9 mph E4.7 kmh E 6.9 mph11.1 kmh 29.84 in1010.5 mb 0.00 in0.0 mm 0.00 in0.0 mm 0.00 in0.0 mm
08:42 AM 71.2°F21.8°C 52.7°F11.5°C 52% 2.0 mph SE3.2 kmh SE 6.0 mph9.7 kmh 29.84 in1010.5 mb 0.00 in0.0 mm 0.00 in0.0 mm 0.00 in0.0 mm
08:37 AM 71.1°F21.7°C 52.5°F11.4°C 52% 2.0 mph SE3.2 kmh SE 4.9 mph7.9 kmh 29.84 in1010.5 mb 0.00 in0.0 mm 0.00 in0.0 mm 0.00 in0.0 mm
08:32 AM 70.5°F21.4°C 53.1°F11.7°C 54% 2.0 mph SE3.2 kmh SE 6.0 mph9.7 kmh 29.83 in1010.2 mb 0.00 in0.0 mm 0.00 in0.0 mm 0.00 in0.0 mm
08:27 AM 69.8°F21.0°C 53.4°F11.9°C 56% 2.0 mph SSE3.2 kmh SSE 5.0 mph8.0 kmh 29.83 in1010.2 mb 0.00 in0.0 mm 0.00 in0.0 mm 0.00 in0.0 mm
08:22 AM 68.7°F20.4°C 53.8°F12.1°C 59% 2.0 mph SE3.2 kmh SE 2.9 mph4.7 kmh 29.83 in1010.2 mb 0.00 in0.0 mm 0.00 in0.0 mm 0.00 in0.0 mm
08:17 AM 68.4°F20.2°C 53.1°F11.7°C 58% 2.0 mph ESE3.2 kmh ESE 6.0 mph9.7 kmh 29.83 in1010.2 mb 0.00 in0.0 mm 0.00 in0.0 mm 0.00 in0.0 mm
08:12 AM 68.4°F20.2°C 52.5°F11.4°C 57% 0.9 mph ESE1.4 kmh ESE 3.0 mph4.8 kmh 29.82 in1009.8 mb 0.00 in0.0 mm 0.00 in0.0 mm 0.00 in0.0 mm
08:07 AM 68.2°F20.1°C 52.3°F11.3°C 57% Calm Calm 2.0 mph3.2 kmh 29.83 in1010.2 mb 0.00 in0.0 mm 0.00 in0.0 mm 0.00 in0.0 mm
08:02 AM 67.6°F19.8°C 52.3°F11.3°C 58% 0.9 mph WNW1.4 kmh WNW 0.9 mph1.4 kmh 29.82 in1009.8 mb 0.00 in0.0 mm 0.00 in0.0 mm 0.00 in0.0 mm
07:57 AM 66.9°F19.4°C 51.6°F10.9°C 58% 0.9 mph WNW1.4 kmh WNW 2.9 mph4.7 kmh 29.82 in1009.8 mb 0.00 in0.0 mm 0.00 in0.0 mm 0.00 in0.0 mm
07:52 AM 66.6°F19.2°C 51.3°F10.7°C 58% 0.9 mph N1.4 kmh N 2.0 mph3.2 kmh 29.82 in1009.8 mb 0.00 in0.0 mm 0.00 in0.0 mm 0.00 in0.0 mm
07:47 AM 66.6°F19.2°C 51.3°F10.7°C 58% 0.9 mph N1.4 kmh N 2.0 mph3.2 kmh 29.81 in1009.5 mb 0.00 in0.0 mm 0.00 in0.0 mm 0.00 in0.0 mm
07:42 AM 66.4°F19.1°C 51.1°F10.6°C 58% 0.9 mph NW1.4 kmh NW 0.9 mph1.4 kmh 29.81 in1009.5 mb 0.00 in0.0 mm 0.00 in0.0 mm 0.00 in0.0 mm
07:37 AM 66.4°F19.1°C 51.6°F10.9°C 59% 0.9 mph NW1.4 kmh NW 2.0 mph3.2 kmh 29.81 in1009.5 mb 0.00 in0.0 mm 0.00 in0.0 mm 0.00 in0.0 mm
07:32 AM 66.2°F19.0°C 51.4°F10.8°C 59% 0.9 mph NW1.4 kmh NW 2.0 mph3.2 kmh 29.81 in1009.5 mb 0.00 in0.0 mm 0.00 in0.0 mm 0.00 in0.0 mm
07:27 AM 66.0°F18.9°C 50.9°F10.5°C 58% 2.0 mph WNW3.2 kmh WNW 4.0 mph6.4 kmh 29.81 in1009.5 mb 0.00 in0.0 mm 0.00 in0.0 mm 0.00 in0.0 mm
07:22 AM 66.0°F18.9°C 50.9°F10.5°C 58% 2.0 mph NW3.2 kmh NW 2.9 mph4.7 kmh 29.80 in1009.1 mb 0.00 in0.0 mm 0.00 in0.0 mm 0.00 in0.0 mm
07:17 AM 65.8°F18.8°C 50.2°F10.1°C 57% 0.9 mph NW1.4 kmh NW 2.9 mph4.7 kmh 29.80 in1009.1 mb 0.00 in0.0 mm 0.00 in0.0 mm 0.00 in0.0 mm
07:12 AM 65.7°F18.7°C 50.0°F10.0°C 57% 0.9 mph NW1.4 kmh NW 2.9 mph4.7 kmh 29.81 in1009.5 mb 0.00 in0.0 mm 0.00 in0.0 mm 0.00 in0.0 mm
07:07 AM 65.3°F18.5°C 49.3°F9.6°C 56% Calm Calm 2.0 mph3.2 kmh 29.81 in1009.5 mb 0.00 in0.0 mm 0.00 in0.0 mm 0.00 in0.0 mm
07:02 AM 65.1°F18.4°C 49.1°F9.5°C 56% 0.9 mph WNW1.4 kmh WNW 2.0 mph3.2 kmh 29.80 in1009.1 mb 0.00 in0.0 mm 0.00 in0.0 mm 0.00 in0.0 mm
06:57 AM 64.9°F18.3°C 49.3°F9.6°C 57% 0.9 mph WNW1.4 kmh WNW 2.9 mph4.7 kmh 29.80 in1009.1 mb 0.00 in0.0 mm 0.00 in0.0 mm 0.00 in0.0 mm
06:52 AM 64.8°F18.2°C 48.7°F9.3°C 56% 2.0 mph WSW3.2 kmh WSW 4.0 mph6.4 kmh 29.80 in1009.1 mb 0.00 in0.0 mm 0.00 in0.0 mm 0.00 in0.0 mm
06:47 AM 64.6°F18.1°C 48.6°F9.2°C 56% 0.9 mph W1.4 kmh W 6.0 mph9.7 kmh 29.80 in1009.1 mb 0.00 in0.0 mm 0.00 in0.0 mm 0.00 in0.0 mm
06:42 AM 64.6°F18.1°C 48.9°F9.4°C 57% 0.9 mph WNW1.4 kmh WNW 2.9 mph4.7 kmh 29.80 in1009.1 mb 0.00 in0.0 mm 0.00 in0.0 mm 0.00 in0.0 mm
06:37 AM 64.6°F18.1°C 48.9°F9.4°C 57% 0.9 mph WNW1.4 kmh WNW 4.9 mph7.9 kmh 29.79 in1008.8 mb 0.00 in0.0 mm 0.00 in0.0 mm 0.00 in0.0 mm
06:32 AM 64.2°F17.9°C 48.7°F9.3°C 57% 0.9 mph WNW1.4 kmh WNW 2.9 mph4.7 kmh 29.80 in1009.1 mb 0.00 in0.0 mm 0.00 in0.0 mm 0.00 in0.0 mm
06:27 AM 64.0°F17.8°C 48.9°F9.4°C 58% 2.0 mph W3.2 kmh W 4.0 mph6.4 kmh 29.80 in1009.1 mb 0.00 in0.0 mm 0.00 in0.0 mm 0.00 in0.0 mm
06:22 AM 63.9°F17.7°C 49.3°F9.6°C 59% 2.0 mph WNW3.2 kmh WNW 9.0 mph14.5 kmh 29.79 in1008.8 mb 0.00 in0.0 mm 0.00 in0.0 mm 0.00 in0.0 mm
06:17 AM 63.7°F17.6°C 50.0°F10.0°C 61% 2.0 mph W3.2 kmh W 4.9 mph7.9 kmh 29.78 in1008.5 mb 0.00 in0.0 mm 0.00 in0.0 mm 0.00 in0.0 mm
06:12 AM 63.1°F17.3°C 49.5°F9.7°C 61% 0.9 mph NNW1.4 kmh NNW 8.1 mph13.0 kmh 29.78 in1008.5 mb 0.00 in0.0 mm 0.00 in0.0 mm 0.00 in0.0 mm
06:07 AM 63.0°F17.2°C 48.4°F9.1°C 59% Calm Calm -- 29.79 in1008.8 mb 0.00 in0.0 mm 0.00 in0.0 mm 0.00 in0.0 mm
06:02 AM 63.0°F17.2°C 48.4°F9.1°C 59% Calm Calm 0.9 mph1.4 kmh 29.79 in1008.8 mb 0.00 in0.0 mm 0.00 in0.0 mm 0.00 in0.0 mm
05:57 AM 63.0°F17.2°C 48.4°F9.1°C 59% 0.9 mph W1.4 kmh W 2.9 mph4.7 kmh 29.79 in1008.8 mb 0.00 in0.0 mm 0.00 in0.0 mm 0.00 in0.0 mm
05:52 AM 62.8°F17.1°C 48.2°F9.0°C 59% 0.9 mph WSW1.4 kmh WSW 2.9 mph4.7 kmh 29.79 in1008.8 mb 0.00 in0.0 mm 0.00 in0.0 mm 0.00 in0.0 mm
05:47 AM 62.6°F17.0°C 48.0°F8.9°C 59% 0.9 mph W1.4 kmh W 4.0 mph6.4 kmh 29.79 in1008.8 mb 0.00 in0.0 mm 0.00 in0.0 mm 0.00 in0.0 mm
05:42 AM 62.4°F16.9°C 47.8°F8.8°C 59% 0.9 mph WNW1.4 kmh WNW 4.0 mph6.4 kmh 29.79 in1008.8 mb 0.00 in0.0 mm 0.00 in0.0 mm 0.00 in0.0 mm
05:37 AM 62.2°F16.8°C 47.7°F8.7°C 59% 0.9 mph WNW1.4 kmh WNW 6.0 mph9.7 kmh 29.79 in1008.8 mb 0.00 in0.0 mm 0.00 in0.0 mm 0.00 in0.0 mm
05:32 AM 62.2°F16.8°C 47.7°F8.7°C 59% 0.9 mph W1.4 kmh W 4.0 mph6.4 kmh 29.79 in1008.8 mb 0.00 in0.0 mm 0.00 in0.0 mm 0.00 in0.0 mm
05:27 AM 62.2°F16.8°C 47.7°F8.7°C 59% 0.9 mph WSW1.4 kmh WSW 2.9 mph4.7 kmh 29.78 in1008.5 mb 0.00 in0.0 mm 0.00 in0.0 mm 0.00 in0.0 mm
05:22 AM 62.2°F16.8°C 48.2°F9.0°C 60% 0.9 mph WSW1.4 kmh WSW 7.0 mph11.3 kmh 29.78 in1008.5 mb 0.00 in0.0 mm 0.00 in0.0 mm 0.00 in0.0 mm
05:17 AM 62.4°F16.9°C 48.4°F9.1°C 60% 0.9 mph WSW1.4 kmh WSW 2.0 mph3.2 kmh 29.78 in1008.5 mb 0.00 in0.0 mm 0.00 in0.0 mm 0.00 in0.0 mm
05:12 AM 62.4°F16.9°C 48.4°F9.1°C 60% 0.9 mph WSW1.4 kmh WSW 2.9 mph4.7 kmh 29.78 in1008.5 mb 0.00 in0.0 mm 0.00 in0.0 mm 0.00 in0.0 mm
05:07 AM 62.4°F16.9°C 48.4°F9.1°C 60% 0.9 mph WSW1.4 kmh WSW 2.0 mph3.2 kmh 29.78 in1008.5 mb 0.00 in0.0 mm 0.00 in0.0 mm 0.00 in0.0 mm
05:02 AM 62.2°F16.8°C 48.2°F9.0°C 60% 2.0 mph WSW3.2 kmh WSW 4.0 mph6.4 kmh 29.77 in1008.1 mb 0.00 in0.0 mm 0.00 in0.0 mm 0.00 in0.0 mm
04:57 AM 62.4°F16.9°C 48.4°F9.1°C 60% 0.9 mph WSW1.4 kmh WSW 2.0 mph3.2 kmh 29.78 in1008.5 mb 0.00 in0.0 mm 0.00 in0.0 mm 0.00 in0.0 mm
04:52 AM 62.8°F17.1°C 49.1°F9.5°C 61% 0.9 mph W1.4 kmh W 2.9 mph4.7 kmh 29.78 in1008.5 mb 0.00 in0.0 mm 0.00 in0.0 mm 0.00 in0.0 mm
04:47 AM 63.0°F17.2°C 49.3°F9.6°C 61% 0.9 mph WNW1.4 kmh WNW 2.9 mph4.7 kmh 29.77 in1008.1 mb 0.00 in0.0 mm 0.00 in0.0 mm 0.00 in0.0 mm
04:42 AM 63.1°F17.3°C 49.5°F9.7°C 61% 0.9 mph W1.4 kmh W 2.9 mph4.7 kmh 29.77 in1008.1 mb 0.00 in0.0 mm 0.00 in0.0 mm 0.00 in0.0 mm
04:37 AM 63.1°F17.3°C 49.5°F9.7°C 61% 0.9 mph W1.4 kmh W 2.9 mph4.7 kmh 29.77 in1008.1 mb 0.00 in0.0 mm 0.00 in0.0 mm 0.00 in0.0 mm
04:32 AM 63.1°F17.3°C 49.8°F9.9°C 62% 0.9 mph W1.4 kmh W 4.0 mph6.4 kmh 29.77 in1008.1 mb 0.00 in0.0 mm 0.00 in0.0 mm 0.00 in0.0 mm
04:27 AM 63.3°F17.4°C 50.0°F10.0°C 62% 2.0 mph WSW3.2 kmh WSW 4.9 mph7.9 kmh 29.78 in1008.5 mb 0.00 in0.0 mm 0.00 in0.0 mm 0.00 in0.0 mm
04:22 AM 63.1°F17.3°C 50.4°F10.2°C 63% 2.0 mph W3.2 kmh W 6.0 mph9.7 kmh 29.77 in1008.1 mb 0.00 in0.0 mm 0.00 in0.0 mm 0.00 in0.0 mm
04:17 AM 63.1°F17.3°C 50.4°F10.2°C 63% 2.0 mph W3.2 kmh W 4.0 mph6.4 kmh 29.77 in1008.1 mb 0.00 in0.0 mm 0.00 in0.0 mm 0.00 in0.0 mm
04:12 AM 63.1°F17.3°C 50.4°F10.2°C 63% 0.9 mph WSW1.4 kmh WSW 2.9 mph4.7 kmh 29.78 in1008.5 mb 0.00 in0.0 mm 0.00 in0.0 mm 0.00 in0.0 mm
04:07 AM 63.1°F17.3°C 50.7°F10.4°C 64% 0.9 mph WSW1.4 kmh WSW 4.9 mph7.9 kmh 29.78 in1008.5 mb 0.00 in0.0 mm 0.00 in0.0 mm 0.00 in0.0 mm
04:02 AM 63.1°F17.3°C 50.7°F10.4°C 64% 2.0 mph W3.2 kmh W 4.9 mph7.9 kmh 29.77 in1008.1 mb 0.00 in0.0 mm 0.00 in0.0 mm 0.00 in0.0 mm
03:57 AM 63.0°F17.2°C 50.5°F10.3°C 64% 2.0 mph NW3.2 kmh NW 8.1 mph13.0 kmh 29.77 in1008.1 mb 0.00 in0.0 mm 0.00 in0.0 mm 0.00 in0.0 mm
03:52 AM 62.8°F17.1°C 50.0°F10.0°C 63% 2.0 mph NE3.2 kmh NE 4.0 mph6.4 kmh 29.77 in1008.1 mb 0.00 in0.0 mm 0.00 in0.0 mm 0.00 in0.0 mm
03:47 AM 62.8°F17.1°C 49.6°F9.8°C 62% 2.0 mph NW3.2 kmh NW 4.0 mph6.4 kmh 29.77 in1008.1 mb 0.00 in0.0 mm 0.00 in0.0 mm 0.00 in0.0 mm
03:42 AM 62.8°F17.1°C 49.6°F9.8°C 62% 0.9 mph W1.4 kmh W 4.0 mph6.4 kmh 29.78 in1008.5 mb 0.00 in0.0 mm 0.00 in0.0 mm 0.00 in0.0 mm
03:37 AM 63.1°F17.3°C 49.8°F9.9°C 62% 0.9 mph NW1.4 kmh NW 4.9 mph7.9 kmh 29.78 in1008.5 mb 0.00 in0.0 mm 0.00 in0.0 mm 0.00 in0.0 mm
03:32 AM 63.3°F17.4°C 50.5°F10.3°C 63% 0.9 mph WNW1.4 kmh WNW 2.0 mph3.2 kmh 29.78 in1008.5 mb 0.00 in0.0 mm 0.00 in0.0 mm 0.00 in0.0 mm
03:27 AM 63.5°F17.5°C 50.7°F10.4°C 63% 2.0 mph NW3.2 kmh NW 4.0 mph6.4 kmh 29.78 in1008.5 mb 0.00 in0.0 mm 0.00 in0.0 mm 0.00 in0.0 mm
03:22 AM 63.7°F17.6°C 50.9°F10.5°C 63% 2.0 mph NW3.2 kmh NW 8.9 mph14.3 kmh 29.78 in1008.5 mb 0.00 in0.0 mm 0.00 in0.0 mm 0.00 in0.0 mm
03:17 AM 63.9°F17.7°C 51.1°F10.6°C 63% 2.0 mph NW3.2 kmh NW 6.9 mph11.1 kmh 29.78 in1008.5 mb 0.00 in0.0 mm 0.00 in0.0 mm 0.00 in0.0 mm
03:12 AM 64.0°F17.8°C 51.3°F10.7°C 63% 2.0 mph WNW3.2 kmh WNW 6.0 mph9.7 kmh 29.78 in1008.5 mb 0.00 in0.0 mm 0.00 in0.0 mm 0.00 in0.0 mm
03:07 AM 64.0°F17.8°C 51.3°F10.7°C 63% 2.0 mph WNW3.2 kmh WNW 8.1 mph13.0 kmh 29.78 in1008.5 mb 0.00 in0.0 mm 0.00 in0.0 mm 0.00 in0.0 mm
03:02 AM 64.4°F18.0°C 52.0°F11.1°C 64% 2.9 mph SW4.7 kmh SW 8.1 mph13.0 kmh 29.78 in1008.5 mb 0.00 in0.0 mm 0.00 in0.0 mm 0.00 in0.0 mm
02:57 AM 64.6°F18.1°C 52.5°F11.4°C 65% 2.9 mph W4.7 kmh W 8.9 mph14.3 kmh 29.78 in1008.5 mb 0.00 in0.0 mm 0.00 in0.0 mm 0.00 in0.0 mm
02:52 AM 64.8°F18.2°C 52.7°F11.5°C 65% 2.9 mph WNW4.7 kmh WNW 8.9 mph14.3 kmh 29.78 in1008.5 mb 0.00 in0.0 mm 0.00 in0.0 mm 0.00 in0.0 mm
02:47 AM 65.1°F18.4°C 53.1°F11.7°C 65% 4.0 mph NW6.4 kmh NW 8.9 mph14.3 kmh 29.78 in1008.5 mb 0.00 in0.0 mm 0.00 in0.0 mm 0.00 in0.0 mm
02:42 AM 65.5°F18.6°C 53.4°F11.9°C 65% 4.9 mph WNW7.9 kmh WNW 11.0 mph17.7 kmh 29.77 in1008.1 mb 0.00 in0.0 mm 0.00 in0.0 mm 0.00 in0.0 mm
02:37 AM 65.7°F18.7°C 54.0°F12.2°C 66% 6.9 mph WNW11.1 kmh WNW 16.1 mph25.9 kmh 29.78 in1008.5 mb 0.00 in0.0 mm 0.00 in0.0 mm 0.00 in0.0 mm
02:32 AM 65.8°F18.8°C 54.1°F12.3°C 66% 8.9 mph WNW14.3 kmh WNW 15.0 mph24.1 kmh 29.78 in1008.5 mb 0.00 in0.0 mm 0.00 in0.0 mm 0.00 in0.0 mm
02:27 AM 65.8°F18.8°C 54.1°F12.3°C 66% 10.1 mph NW16.3 kmh NW 17.0 mph27.4 kmh 29.77 in1008.1 mb 0.00 in0.0 mm 0.00 in0.0 mm 0.00 in0.0 mm
02:22 AM 66.0°F18.9°C 54.0°F12.2°C 65% 10.1 mph NW16.3 kmh NW 15.0 mph24.1 kmh 29.78 in1008.5 mb 0.00 in0.0 mm 0.00 in0.0 mm 0.00 in0.0 mm
02:17 AM 66.0°F18.9°C 54.0°F12.2°C 65% 12.1 mph NW19.5 kmh NW 17.0 mph27.4 kmh 29.78 in1008.5 mb 0.00 in0.0 mm 0.00 in0.0 mm 0.00 in0.0 mm
02:12 AM 66.0°F18.9°C 53.4°F11.9°C 64% 13.0 mph NW20.9 kmh NW 19.0 mph30.6 kmh 29.78 in1008.5 mb 0.00 in0.0 mm 0.00 in0.0 mm 0.00 in0.0 mm
02:07 AM 65.8°F18.8°C 53.8°F12.1°C 65% 12.1 mph NNW19.5 kmh NNW 19.0 mph30.6 kmh 29.78 in1008.5 mb 0.00 in0.0 mm 0.00 in0.0 mm 0.00 in0.0 mm
02:02 AM 65.7°F18.7°C 53.2°F11.8°C 64% 12.1 mph NW19.5 kmh NW 19.0 mph30.6 kmh 29.78 in1008.5 mb 0.00 in0.0 mm 0.00 in0.0 mm 0.00 in0.0 mm
01:57 AM 65.5°F18.6°C 53.1°F11.7°C 64% 12.1 mph N19.5 kmh N 19.9 mph32.0 kmh 29.79 in1008.8 mb 0.00 in0.0 mm 0.00 in0.0 mm 0.00 in0.0 mm
01:52 AM 65.5°F18.6°C 53.4°F11.9°C 65% 8.9 mph NNE14.3 kmh NNE 21.9 mph35.2 kmh 29.79 in1008.8 mb 0.00 in0.0 mm 0.00 in0.0 mm 0.00 in0.0 mm
01:47 AM 64.9°F18.3°C 52.0°F11.1°C 63% 4.0 mph NNW6.4 kmh NNW 13.0 mph20.9 kmh 29.79 in1008.8 mb 0.00 in0.0 mm 0.00 in0.0 mm 0.00 in0.0 mm
01:42 AM 64.9°F18.3°C 51.1°F10.6°C 61% 2.9 mph WNW4.7 kmh WNW 11.0 mph17.7 kmh 29.78 in1008.5 mb 0.00 in0.0 mm 0.00 in0.0 mm 0.00 in0.0 mm
01:37 AM 64.9°F18.3°C 51.6°F10.9°C 62% 4.0 mph WSW6.4 kmh WSW 8.9 mph14.3 kmh 29.78 in1008.5 mb 0.00 in0.0 mm 0.00 in0.0 mm 0.00 in0.0 mm
01:32 AM 64.9°F18.3°C 51.6°F10.9°C 62% 2.9 mph NW4.7 kmh NW 11.0 mph17.7 kmh 29.78 in1008.5 mb 0.00 in0.0 mm 0.00 in0.0 mm 0.00 in0.0 mm
01:27 AM 64.8°F18.2°C 51.1°F10.6°C 61% 2.0 mph NNW3.2 kmh NNW 12.1 mph19.5 kmh 29.78 in1008.5 mb 0.00 in0.0 mm 0.00 in0.0 mm 0.00 in0.0 mm
01:22 AM 64.8°F18.2°C 51.1°F10.6°C 61% 2.0 mph NW3.2 kmh NW 8.1 mph13.0 kmh 29.78 in1008.5 mb 0.00 in0.0 mm 0.00 in0.0 mm 0.00 in0.0 mm
01:17 AM 64.6°F18.1°C 50.9°F10.5°C 61% 2.0 mph NW3.2 kmh NW 4.9 mph7.9 kmh 29.78 in1008.5 mb 0.00 in0.0 mm 0.00 in0.0 mm 0.00 in0.0 mm
01:12 AM 64.4°F18.0°C 51.1°F10.6°C 62% 2.9 mph WNW4.7 kmh WNW 11.0 mph17.7 kmh 29.78 in1008.5 mb 0.00 in0.0 mm 0.00 in0.0 mm 0.00 in0.0 mm
01:07 AM 63.9°F17.7°C 50.5°F10.3°C 62% 2.9 mph W4.7 kmh W 8.1 mph13.0 kmh 29.78 in1008.5 mb 0.00 in0.0 mm 0.00 in0.0 mm 0.00 in0.0 mm
01:02 AM 63.1°F17.3°C 50.4°F10.2°C 63% 2.9 mph WNW4.7 kmh WNW 8.9 mph14.3 kmh 29.78 in1008.5 mb 0.00 in0.0 mm 0.00 in0.0 mm 0.00 in0.0 mm
12:57 AM 62.2°F16.8°C 50.0°F10.0°C 64% 2.0 mph S3.2 kmh S 8.9 mph14.3 kmh 29.78 in1008.5 mb 0.00 in0.0 mm 0.00 in0.0 mm 0.00 in0.0 mm
12:52 AM 61.3°F16.3°C 49.5°F9.7°C 65% 2.0 mph W3.2 kmh W 8.1 mph13.0 kmh 29.78 in1008.5 mb 0.00 in0.0 mm 0.00 in0.0 mm 0.00 in0.0 mm
12:47 AM 60.6°F15.9°C 49.3°F9.6°C 66% 0.9 mph SW1.4 kmh SW 2.9 mph4.7 kmh 29.78 in1008.5 mb 0.00 in0.0 mm 0.00 in0.0 mm 0.00 in0.0 mm
12:42 AM 60.4°F15.8°C 48.6°F9.2°C 65% 2.0 mph SW3.2 kmh SW 2.0 mph3.2 kmh 29.78 in1008.5 mb 0.00 in0.0 mm 0.00 in0.0 mm 0.00 in0.0 mm
12:37 AM 60.6°F15.9°C 48.7°F9.3°C 65% 2.0 mph S3.2 kmh S 4.9 mph7.9 kmh 29.77 in1008.1 mb 0.00 in0.0 mm 0.00 in0.0 mm 0.00 in0.0 mm
12:32 AM 60.6°F15.9°C 48.7°F9.3°C 65% 2.0 mph SW3.2 kmh SW 4.0 mph6.4 kmh 29.77 in1008.1 mb 0.00 in0.0 mm 0.00 in0.0 mm 0.00 in0.0 mm
12:27 AM 60.6°F15.9°C 48.4°F9.1°C 64% 2.9 mph SW4.7 kmh SW 4.9 mph7.9 kmh 29.77 in1008.1 mb 0.00 in0.0 mm 0.00 in0.0 mm 0.00 in0.0 mm
12:22 AM 60.6°F15.9°C 48.4°F9.1°C 64% 2.0 mph S3.2 kmh S 6.0 mph9.7 kmh 29.77 in1008.1 mb 0.00 in0.0 mm 0.00 in0.0 mm 0.00 in0.0 mm
12:17 AM 61.0°F16.1°C 48.7°F9.3°C 64% 2.0 mph SW3.2 kmh SW 2.9 mph4.7 kmh 29.77 in1008.1 mb 0.00 in0.0 mm 0.00 in0.0 mm 0.00 in0.0 mm
12:12 AM 61.2°F16.2°C 48.9°F9.4°C 64% 2.0 mph SW3.2 kmh SW 5.0 mph8.0 kmh 29.77 in1008.1 mb 0.00 in0.0 mm 0.00 in0.0 mm 0.00 in0.0 mm
12:07 AM 61.5°F16.4°C 49.3°F9.6°C 64% 2.0 mph SW3.2 kmh SW 2.9 mph4.7 kmh 29.76 in1007.8 mb 0.00 in0.0 mm 0.00 in0.0 mm 0.00 in0.0 mm
12:02 AM 61.9°F16.6°C 49.6°F9.8°C 64% 0.9 mph S1.4 kmh S 4.0 mph6.4 kmh 29.77 in1008.1 mb 0.00 in0.0 mm 0.00 in0.0 mm 0.00 in0.0 mm